Time;durP1;ratioP1;P1;durP2;ratioP2;P2;SDS_P1;SDS_P2;PMS_P1;PMS_P2;Temp;Humidity;BMP_temperature;BMP_pressure;BME280_temperature;BME280_humidity;BME280_pressure;Samples;Min_cycle;Max_cycle;Signal;HPM_P1;HPM_P2
2023/04/02 00:01:26;;;;;;;4.00;1.43;;;2.70;99.90;;;;;;4896314;29;21004;-62
2023/04/02 00:04:20;;;;;;;5.07;1.37;;;2.70;99.90;;;;;;4898159;29;20927;-61
2023/04/02 00:06:54;;;;;;;5.23;2.03;;;2.70;99.90;;;;;;4898396;29;20994;-61
2023/04/02 00:09:36;;;;;;;3.23;1.40;;;2.70;99.90;;;;;;4898218;29;20473;-62
2023/04/02 00:12:17;;;;;;;7.57;1.50;;;2.70;99.90;;;;;;4898445;29;20474;-62
2023/04/02 00:14:52;;;;;;;5.27;1.63;;;2.60;99.90;;;;;;4898168;29;21066;-61
2023/04/02 00:17:22;;;;;;;3.37;1.17;;;2.60;99.90;;;;;;4897825;29;20484;-62
2023/04/02 00:19:56;;;;;;;5.00;1.10;;;2.60;99.90;;;;;;4898255;29;21042;-61
2023/04/02 00:22:28;;;;;;;3.63;1.10;;;2.70;99.90;;;;;;4894234;29;20566;-61
2023/04/02 00:24:59;;;;;;;4.90;1.30;;;2.70;99.90;;;;;;4879324;29;20466;-61
2023/04/02 00:27:27;;;;;;;3.80;1.30;;;2.70;99.90;;;;;;4879054;29;20476;-61
2023/04/02 00:29:57;;;;;;;5.17;1.20;;;2.70;99.90;;;;;;4893513;29;20469;-62
2023/04/02 00:32:26;;;;;;;3.00;1.10;;;2.60;99.90;;;;;;4896127;29;21009;-61
2023/04/02 00:34:56;;;;;;;5.23;1.27;;;2.60;99.90;;;;;;4897826;29;20469;-62
2023/04/02 00:37:27;;;;;;;4.33;1.10;;;2.60;99.90;;;;;;4897626;29;20512;-61
2023/04/02 00:40:05;;;;;;;3.33;1.43;;;2.60;99.90;;;;;;4897853;29;20492;-62
2023/04/02 00:42:35;;;;;;;3.50;1.20;;;2.60;99.90;;;;;;4896422;29;20487;-62
2023/04/02 00:45:03;;;;;;;6.23;1.47;;;2.60;99.90;;;;;;4897873;29;20470;-62
2023/04/02 00:47:35;;;;;;;2.53;1.10;;;2.60;99.90;;;;;;4897399;29;20465;-62
2023/04/02 00:50:17;;;;;;;3.57;1.37;;;2.60;99.90;;;;;;4897664;29;20869;-62
2023/04/02 00:52:48;;;;;;;3.93;1.40;;;2.60;99.90;;;;;;4891101;29;20475;-61
2023/04/02 00:55:22;;;;;;;4.53;1.50;;;2.60;99.90;;;;;;4878987;29;20474;-62
2023/04/02 00:57:51;;;;;;;6.83;1.60;;;2.60;99.90;;;;;;4878803;29;20496;-62
2023/04/02 01:00:22;;;;;;;3.97;1.20;;;2.60;99.90;;;;;;4896182;29;20475;-62
2023/04/02 01:03:28;;;;;;;6.50;1.40;;;2.60;99.90;;;;;;4939573;23;20501;-59
2023/04/02 01:06:02;;;;;;;4.77;1.40;;;2.60;99.90;;;;;;4935096;29;20466;-59
2023/04/02 01:08:41;;;;;;;5.27;1.17;;;2.50;99.90;;;;;;4933996;29;20888;-60
2023/04/02 01:11:22;;;;;;;4.23;1.40;;;2.60;99.90;;;;;;4935383;29;20471;-60
2023/04/02 01:14:01;;;;;;;4.13;1.17;;;2.50;99.90;;;;;;4935305;29;20468;-60
2023/04/02 01:16:41;;;;;;;4.20;1.10;;;2.50;99.90;;;;;;4934989;29;20469;-59
2023/04/02 01:19:30;;;;;;;3.10;1.37;;;2.50;99.90;;;;;;4922952;29;20486;-60
2023/04/02 01:22:07;;;;;;;1.83;0.93;;;2.50;99.90;;;;;;4935214;29;20493;-59
2023/04/02 01:24:37;;;;;;;4.63;1.20;;;2.40;99.90;;;;;;4948992;29;20839;-59
2023/04/02 01:27:13;;;;;;;3.37;1.23;;;2.40;99.90;;;;;;4935210;29;20458;-60
2023/04/02 01:29:47;;;;;;;2.53;1.17;;;2.50;99.90;;;;;;4949508;29;20805;-58
2023/04/02 01:32:19;;;;;;;5.30;1.07;;;2.50;99.90;;;;;;4933433;29;20483;-60
2023/04/02 01:34:50;;;;;;;3.30;1.20;;;2.50;99.90;;;;;;4933833;29;20469;-60
2023/04/02 01:37:32;;;;;;;3.63;1.50;;;2.40;99.90;;;;;;4933863;29;20841;-60
2023/04/02 01:40:18;;;;;;;2.40;0.90;;;2.50;99.90;;;;;;4935194;29;20471;-60
2023/04/02 01:42:55;;;;;;;3.07;0.90;;;2.50;99.90;;;;;;4934999;29;20465;-59
2023/04/02 01:45:25;;;;;;;3.87;1.13;;;2.50;99.90;;;;;;4935061;29;20997;-60
2023/04/02 01:47:53;;;;;;;4.73;1.50;;;2.50;99.90;;;;;;4949224;29;20489;-59
2023/04/02 01:50:30;;;;;;;3.83;1.10;;;2.50;99.90;;;;;;4934839;29;20465;-59
2023/04/02 01:53:01;;;;;;;6.60;1.43;;;2.50;99.90;;;;;;4949738;29;20919;-59
2023/04/02 01:55:39;;;;;;;5.97;1.83;;;2.50;99.90;;;;;;4933515;29;20511;-60
2023/04/02 01:58:10;;;;;;;4.37;1.30;;;2.50;99.90;;;;;;4949494;29;20581;-60
2023/04/02 02:00:46;;;;;;;5.03;1.30;;;2.50;99.90;;;;;;4934180;28;20469;-58
2023/04/02 02:03:15;;;;;;;4.50;1.17;;;2.50;99.90;;;;;;4922685;29;20477;-59
2023/04/02 02:05:45;;;;;;;3.03;1.13;;;2.50;99.90;;;;;;4917940;29;21009;-60
2023/04/02 02:08:23;;;;;;;2.80;1.03;;;2.50;99.90;;;;;;4918058;29;20985;-59
2023/04/02 02:10:52;;;;;;;3.53;1.00;;;2.40;99.90;;;;;;4919296;29;20549;-59
2023/04/02 02:13:21;;;;;;;2.60;1.00;;;2.50;99.90;;;;;;4919232;29;20992;-60
2023/04/02 02:15:51;;;;;;;5.40;1.23;;;2.50;99.90;;;;;;4921782;29;20471;-60
2023/04/02 02:18:22;;;;;;;2.97;1.17;;;2.50;99.90;;;;;;4941605;29;20491;-59
2023/04/02 02:20:52;;;;;;;2.60;1.23;;;2.40;99.90;;;;;;4918029;29;20474;-59
2023/04/02 02:23:21;;;;;;;3.80;1.20;;;2.50;99.90;;;;;;4930657;29;20486;-60
2023/04/02 02:25:50;;;;;;;3.20;1.10;;;2.40;99.90;;;;;;4937842;29;20976;-60
2023/04/02 02:28:21;;;;;;;5.33;1.70;;;2.40;99.90;;;;;;4937863;29;20466;-60
2023/04/02 02:30:53;;;;;;;6.83;1.30;;;2.40;99.90;;;;;;4934474;29;20504;-59
2023/04/02 02:33:25;;;;;;;3.13;1.20;;;2.40;99.90;;;;;;4922848;29;20491;-60
2023/04/02 02:36:00;;;;;;;6.00;1.50;;;2.40;99.90;;;;;;4917678;29;21034;-60
2023/04/02 02:38:53;;;;;;;3.90;1.53;;;2.40;99.90;;;;;;4917270;29;20513;-59
2023/04/02 02:41:53;;;;;;;4.60;1.30;;;2.40;99.90;;;;;;4910020;29;21001;-60
2023/04/02 02:44:25;;;;;;;4.83;1.13;;;2.40;99.90;;;;;;4917364;29;20472;-58
2023/04/02 02:47:01;;;;;;;6.70;1.40;;;2.30;99.90;;;;;;4941855;29;20603;-60
2023/04/02 02:49:33;;;;;;;5.17;1.53;;;2.40;99.90;;;;;;4917161;29;20526;-59
2023/04/02 02:52:13;;;;;;;3.10;1.00;;;2.40;99.90;;;;;;4917332;29;20491;-60
2023/04/02 02:55:05;;;;;;;3.13;1.00;;;2.40;99.90;;;;;;4918231;29;20476;-60
2023/04/02 02:57:47;;;;;;;3.77;1.47;;;2.40;99.90;;;;;;4917049;29;20589;-60
2023/04/02 03:00:18;;;;;;;4.40;1.17;;;2.40;99.90;;;;;;4933973;29;20547;-60
2023/04/02 03:02:49;;;;;;;3.13;1.13;;;2.40;99.90;;;;;;4926564;29;20483;-57
2023/04/02 03:05:23;;;;;;;3.80;1.20;;;2.40;99.90;;;;;;4917056;29;20481;-59
2023/04/02 03:07:57;;;;;;;4.07;1.13;;;2.40;99.90;;;;;;4917034;29;20492;-59
2023/04/02 03:10:34;;;;;;;5.70;1.37;;;2.40;99.90;;;;;;4918083;29;21000;-59
2023/04/02 03:13:10;;;;;;;5.60;1.07;;;2.40;99.90;;;;;;4935499;29;20483;-60
2023/04/02 03:15:43;;;;;;;4.97;1.30;;;2.40;99.90;;;;;;4929186;29;20919;-59
2023/04/02 03:18:18;;;;;;;3.37;1.00;;;2.30;99.90;;;;;;4930320;29;20464;-59
2023/04/02 03:20:51;;;;;;;4.23;1.23;;;2.40;99.90;;;;;;4935555;29;20493;-60
2023/04/02 03:23:27;;;;;;;3.87;1.30;;;2.30;99.90;;;;;;4935699;29;20476;-60
2023/04/02 03:26:01;;;;;;;3.97;1.57;;;2.40;99.90;;;;;;4936928;29;20510;-60
2023/04/02 03:28:36;;;;;;;5.37;1.17;;;2.30;99.90;;;;;;4935366;29;20536;-59
2023/04/02 03:31:08;;;;;;;3.90;1.00;;;2.40;99.90;;;;;;4940533;29;20933;-60
2023/04/02 03:33:40;;;;;;;4.37;1.20;;;2.30;99.90;;;;;;4927354;29;20687;-59
2023/04/02 03:36:18;;;;;;;2.90;1.10;;;2.30;99.90;;;;;;4936772;29;20464;-60
2023/04/02 03:38:51;;;;;;;4.87;1.50;;;2.30;99.90;;;;;;4935192;29;20549;-60
2023/04/02 03:41:25;;;;;;;3.67;1.37;;;2.40;99.90;;;;;;4935406;29;20481;-60
2023/04/02 03:43:58;;;;;;;5.10;1.40;;;2.50;99.90;;;;;;4936669;29;20994;-60
2023/04/02 03:46:31;;;;;;;5.47;1.50;;;2.50;99.90;;;;;;4926792;29;20465;-58
2023/04/02 03:49:06;;;;;;;3.27;1.43;;;2.40;99.90;;;;;;4916483;29;20482;-59
2023/04/02 03:51:38;;;;;;;5.77;1.67;;;2.30;99.90;;;;;;4916031;29;20469;-60
2023/04/02 03:54:13;;;;;;;5.30;1.40;;;2.30;99.90;;;;;;4917466;29;20459;-60
2023/04/02 03:56:46;;;;;;;3.27;1.20;;;2.30;99.90;;;;;;4915883;29;20988;-60
2023/04/02 03:59:25;;;;;;;4.03;1.60;;;2.40;99.90;;;;;;4923095;29;20493;-59
2023/04/02 04:01:59;;;;;;;4.60;1.80;;;2.40;99.90;;;;;;4918375;29;20484;-60
2023/04/02 04:04:31;;;;;;;3.90;1.67;;;2.30;99.90;;;;;;4934803;29;20472;-58
2023/04/02 04:07:01;;;;;;;2.43;1.40;;;2.30;99.90;;;;;;4936237;29;20551;-60
2023/04/02 04:09:33;;;;;;;4.37;1.50;;;2.30;99.90;;;;;;4934695;29;20476;-59
2023/04/02 04:12:14;;;;;;;4.17;1.60;;;2.20;99.90;;;;;;4934904;29;20970;-60
2023/04/02 04:14:46;;;;;;;3.50;1.40;;;2.30;99.90;;;;;;4934593;29;20493;-60
2023/04/02 04:17:23;;;;;;;5.67;1.50;;;2.30;99.90;;;;;;4928406;29;20473;-59
2023/04/02 04:20:07;;;;;;;3.17;1.70;;;2.30;99.90;;;;;;4921835;29;21058;-60
2023/04/02 04:22:35;;;;;;;2.50;1.00;;;2.30;99.90;;;;;;4915613;29;21061;-60
2023/04/02 04:25:22;;;;;;;5.00;1.60;;;2.20;99.90;;;;;;4915543;29;20532;-60
2023/04/02 04:28:04;;;;;;;4.77;1.67;;;2.30;99.90;;;;;;4915313;29;20466;-60
2023/04/02 04:30:43;;;;;;;7.13;1.60;;;2.20;99.90;;;;;;4928685;29;20474;-60
2023/04/02 04:33:21;;;;;;;2.67;1.30;;;2.20;99.90;;;;;;4929028;29;20465;-60
2023/04/02 04:35:55;;;;;;;2.23;1.47;;;2.20;99.90;;;;;;4934475;29;20472;-61
2023/04/02 04:38:32;;;;;;;4.53;1.70;;;2.20;99.90;;;;;;4934358;29;20567;-57
2023/04/02 04:41:05;;;;;;;6.50;1.50;;;2.20;99.90;;;;;;4934349;29;20525;-60
2023/04/02 04:43:43;;;;;;;5.07;1.10;;;2.20;99.90;;;;;;4949005;29;20544;-60
2023/04/02 04:46:16;;;;;;;3.40;1.37;;;2.30;99.90;;;;;;4928055;29;20885;-60
2023/04/02 04:48:52;;;;;;;2.57;1.60;;;2.30;99.90;;;;;;4917498;29;20888;-60
2023/04/02 04:51:27;;;;;;;4.07;1.57;;;2.30;99.90;;;;;;4916586;29;20458;-60
2023/04/02 04:53:55;;;;;;;4.27;1.40;;;2.20;99.90;;;;;;4927564;29;20473;-59
2023/04/02 04:56:29;;;;;;;4.00;1.33;;;2.20;99.90;;;;;;4915100;29;20517;-57
2023/04/02 04:59:15;;;;;;;4.80;1.50;;;2.30;99.90;;;;;;4920671;29;20469;-60
2023/04/02 05:01:50;;;;;;;4.80;1.53;;;2.40;99.90;;;;;;4917501;29;20556;-59
2023/04/02 05:04:25;;;;;;;3.83;1.30;;;2.60;99.90;;;;;;4934151;29;20474;-60
2023/04/02 05:07:00;;;;;;;2.23;1.27;;;2.60;99.90;;;;;;4933544;29;20540;-60
2023/04/02 05:09:33;;;;;;;4.63;1.90;;;2.80;99.90;;;;;;4919652;29;20481;-60
2023/04/02 05:12:09;;;;;;;4.40;1.53;;;2.80;99.90;;;;;;4922596;29;20558;-60
2023/04/02 05:14:43;;;;;;;6.33;1.47;;;2.70;99.90;;;;;;4916190;29;20466;-59
2023/04/02 05:17:17;;;;;;;4.93;1.47;;;2.50;99.90;;;;;;4915127;29;20482;-59
2023/04/02 05:19:50;;;;;;;3.57;1.70;;;2.90;99.90;;;;;;4919640;29;20462;-59
2023/04/02 05:22:27;;;;;;;2.87;1.40;;;2.80;99.90;;;;;;4933976;29;20517;-58
2023/04/02 05:25:07;;;;;;;5.20;1.50;;;2.90;99.90;;;;;;4933993;29;20476;-60
2023/04/02 05:27:41;;;;;;;4.87;1.30;;;2.90;99.90;;;;;;4933822;29;20567;-59
2023/04/02 05:30:20;;;;;;;4.87;1.60;;;2.70;99.90;;;;;;4933758;29;20571;-59
2023/04/02 05:32:55;;;;;;;4.17;1.37;;;2.70;99.90;;;;;;4924177;29;20503;-59
2023/04/02 05:35:32;;;;;;;3.83;1.60;;;2.70;99.90;;;;;;4914708;29;20539;-58
2023/04/02 05:38:02;;;;;;;3.13;1.50;;;2.70;99.90;;;;;;4917192;29;21077;-60
2023/04/02 05:40:37;;;;;;;3.87;1.30;;;2.70;99.90;;;;;;4918333;29;20526;-59
2023/04/02 05:43:10;;;;;;;3.27;1.47;;;2.80;99.90;;;;;;4918532;29;20481;-60
2023/04/02 05:45:45;;;;;;;3.60;1.33;;;2.90;99.90;;;;;;4918329;29;20546;-60
2023/04/02 05:48:17;;;;;;;3.53;1.57;;;2.70;99.90;;;;;;4918418;29;20997;-60
2023/04/02 05:50:50;;;;;;;4.17;1.50;;;2.60;99.90;;;;;;4918246;29;20471;-59
2023/04/02 05:53:28;;;;;;;2.80;1.37;;;2.80;99.90;;;;;;4918359;29;21005;-59
2023/04/02 05:56:02;;;;;;;6.47;1.50;;;2.90;99.90;;;;;;4918301;29;21050;-60
2023/04/02 05:58:37;;;;;;;4.07;1.40;;;2.90;99.90;;;;;;4925210;29;20541;-60
2023/04/02 06:01:20;;;;;;;5.03;1.50;;;3.10;99.90;;;;;;4932004;29;20480;-60
2023/04/02 06:03:57;;;;;;;3.97;1.40;;;3.10;99.90;;;;;;4919373;29;20520;-60
2023/04/02 06:06:42;;;;;;;4.93;1.37;;;3.00;99.90;;;;;;4917984;29;20823;-59
2023/04/02 06:09:18;;;;;;;6.03;1.40;;;3.10;99.90;;;;;;4918048;29;20846;-59
2023/04/02 06:11:51;;;;;;;2.80;1.50;;;2.90;99.90;;;;;;4917882;29;20479;-61
2023/04/02 06:14:19;;;;;;;3.67;1.10;;;2.90;99.90;;;;;;4923322;29;20466;-59
2023/04/02 06:16:49;;;;;;;3.10;1.33;;;2.90;99.90;;;;;;4932955;29;20493;-60
2023/04/02 06:19:23;;;;;;;3.43;1.23;;;3.00;99.90;;;;;;4929284;29;20494;-60
2023/04/02 06:21:57;;;;;;;5.30;1.33;;;3.10;99.90;;;;;;4953511;28;20547;-60
2023/04/02 06:24:30;;;;;;;3.43;1.23;;;3.30;99.90;;;;;;4935255;29;21075;-58
2023/04/02 06:27:05;;;;;;;4.10;1.30;;;3.40;99.90;;;;;;4930701;29;20475;-59
2023/04/02 06:29:38;;;;;;;2.80;1.20;;;3.50;99.90;;;;;;4927263;29;20474;-60
2023/04/02 06:32:10;;;;;;;4.53;1.10;;;3.50;99.90;;;;;;4955802;28;20484;-59
2023/04/02 06:34:42;;;;;;;3.60;1.50;;;3.50;99.90;;;;;;4937689;29;20460;-60
2023/04/02 06:37:21;;;;;;;3.80;1.20;;;3.60;99.90;;;;;;4936572;29;20479;-60
2023/04/02 06:39:54;;;;;;;3.13;1.30;;;3.70;99.90;;;;;;4926701;29;20555;-60
2023/04/02 06:42:26;;;;;;;5.07;1.30;;;3.90;99.90;;;;;;4930834;29;20484;-60
2023/04/02 06:45:25;;;;;;;2.63;1.27;;;3.90;99.90;;;;;;4922267;29;20479;-60
2023/04/02 06:48:16;;;;;;;4.23;1.27;;;4.30;99.90;;;;;;4925180;29;20530;-60
2023/04/02 06:50:50;;;;;;;3.17;1.33;;;4.40;99.90;;;;;;4920236;29;20983;-60
2023/04/02 06:53:23;;;;;;;2.90;1.20;;;4.50;99.90;;;;;;4936003;29;20527;-60
2023/04/02 06:55:59;;;;;;;3.83;1.37;;;4.60;99.90;;;;;;4932215;29;20498;-59
2023/04/02 06:58:30;;;;;;;3.13;1.40;;;4.80;99.90;;;;;;4925505;29;21065;-60
2023/04/02 07:00:58;;;;;;;4.93;1.57;;;5.00;99.90;;;;;;4926131;29;20660;-61
2023/04/02 07:03:53;;;;;;;4.20;1.73;;;5.10;99.90;;;;;;4924919;29;20879;-60
2023/04/02 07:06:27;;;;;;;5.13;1.47;;;5.10;99.90;;;;;;4922596;29;20473;-59
2023/04/02 07:08:58;;;;;;;4.57;1.13;;;5.30;99.90;;;;;;4923893;29;20471;-60
2023/04/02 07:11:28;;;;;;;4.90;1.20;;;5.60;99.90;;;;;;4934994;29;20462;-59
2023/04/02 07:14:00;;;;;;;3.27;1.10;;;5.70;99.90;;;;;;4946508;29;20721;-60
2023/04/02 07:16:30;;;;;;;3.43;1.23;;;5.90;99.90;;;;;;4928746;29;20586;-60
2023/04/02 07:18:59;;;;;;;5.53;1.23;;;6.00;99.90;;;;;;4930321;29;20276;-60
2023/04/02 07:21:31;;;;;;;2.60;1.00;;;6.10;99.90;;;;;;4926925;29;20283;-60
2023/04/02 07:23:59;;;;;;;3.57;1.10;;;6.20;99.90;;;;;;4931154;29;20283;-59
2023/04/02 07:26:28;;;;;;;4.73;1.20;;;6.40;99.90;;;;;;4927381;29;20244;-60
2023/04/02 07:28:57;;;;;;;4.80;0.90;;;6.60;99.90;;;;;;4932373;29;20274;-60
2023/04/02 07:31:27;;;;;;;4.77;0.93;;;6.70;99.90;;;;;;4918344;29;20292;-58
2023/04/02 07:33:58;;;;;;;6.57;1.10;;;6.70;99.90;;;;;;4934674;29;20730;-61
2023/04/02 07:36:28;;;;;;;4.77;0.90;;;6.60;99.90;;;;;;4936755;29;20572;-59
2023/04/02 07:38:56;;;;;;;5.63;1.10;;;6.30;99.90;;;;;;4926831;29;20236;-59
2023/04/02 07:41:25;;;;;;;2.83;0.87;;;6.40;99.90;;;;;;4918880;29;20719;-59
2023/04/02 07:43:54;;;;;;;3.20;0.67;;;6.40;99.90;;;;;;4918505;29;20237;-60
2023/04/02 07:46:23;;;;;;;2.97;0.90;;;6.40;99.90;;;;;;4935350;29;20238;-60
2023/04/02 07:48:51;;;;;;;4.37;1.00;;;6.40;99.90;;;;;;4928533;29;20330;-60
2023/04/02 07:51:21;;;;;;;4.90;0.60;;;6.50;99.90;;;;;;4936664;29;20699;-60
2023/04/02 07:53:54;;;;;;;4.33;0.90;;;6.60;99.90;;;;;;4936580;29;20230;-60
2023/04/02 07:56:24;;;;;;;1.70;0.67;;;6.70;99.90;;;;;;4936556;29;20232;-60
2023/04/02 07:58:54;;;;;;;5.43;1.03;;;6.80;99.90;;;;;;4936476;29;20236;-60
2023/04/02 08:01:24;;;;;;;1.93;0.63;;;6.90;99.90;;;;;;4921040;29;20255;-60
2023/04/02 08:03:53;;;;;;;1.10;0.60;;;6.90;99.90;;;;;;4934550;29;20252;-60
2023/04/02 08:06:22;;;;;;;4.93;1.00;;;7.10;99.90;;;;;;4936173;29;20232;-60
2023/04/02 08:08:50;;;;;;;2.00;0.77;;;7.10;99.90;;;;;;4936362;29;20717;-60
2023/04/02 08:11:18;;;;;;;4.27;0.90;;;7.10;99.90;;;;;;4930114;29;20235;-60
2023/04/02 08:13:46;;;;;;;1.90;0.80;;;7.20;99.90;;;;;;4917912;29;20240;-60
2023/04/02 08:16:16;;;;;;;2.57;1.00;;;7.20;99.90;;;;;;4934986;29;20320;-60
2023/04/02 08:18:46;;;;;;;2.57;0.90;;;7.40;99.90;;;;;;4936131;29;20690;-60
2023/04/02 08:21:14;;;;;;;3.60;0.80;;;7.30;99.90;;;;;;4936186;29;20236;-61
2023/04/02 08:23:44;;;;;;;2.17;0.60;;;7.40;99.90;;;;;;4935017;29;20747;-61
2023/04/02 08:26:17;;;;;;;3.77;0.67;;;7.40;99.90;;;;;;4935806;29;20270;-60
2023/04/02 08:28:45;;;;;;;2.77;0.80;;;6.90;99.90;;;;;;4928405;29;20236;-60
2023/04/02 08:31:13;;;;;;;3.00;0.80;;;6.80;99.90;;;;;;4928786;29;20243;-60
2023/04/02 08:33:42;;;;;;;2.37;0.83;;;6.70;99.90;;;;;;4924320;29;20228;-60
2023/04/02 08:36:15;;;;;;;4.53;0.80;;;6.90;99.90;;;;;;4925897;29;20307;-60
2023/04/02 08:38:43;;;;;;;3.73;0.80;;;7.30;99.90;;;;;;4926031;29;20236;-60
2023/04/02 08:41:22;;;;;;;1.63;0.70;;;7.50;99.90;;;;;;4926727;29;20240;-60
2023/04/02 08:44:12;;;;;;;2.70;0.70;;;7.90;99.90;;;;;;4924375;29;20232;-60
2023/04/02 08:46:45;;;;;;;2.33;0.70;;;8.10;99.90;;;;;;4925610;29;20715;-60
2023/04/02 08:49:17;;;;;;;3.80;0.80;;;8.20;99.90;;;;;;4920387;29;20688;-60
2023/04/02 08:51:47;;;;;;;2.90;0.87;;;8.30;99.90;;;;;;4923990;29;20229;-60
2023/04/02 08:54:22;;;;;;;2.27;0.80;;;8.40;99.90;;;;;;4925147;29;20728;-60
2023/04/02 08:56:56;;;;;;;2.87;0.73;;;8.70;99.90;;;;;;4924709;29;20236;-60
2023/04/02 08:59:32;;;;;;;2.13;0.70;;;9.20;99.90;;;;;;4924567;29;20732;-59
2023/04/02 09:02:12;;;;;;;3.17;0.70;;;9.60;99.90;;;;;;4925829;29;20240;-60
2023/04/02 09:04:42;;;;;;;3.07;0.90;;;9.50;99.90;;;;;;4926001;29;20225;-60
2023/04/02 09:07:13;;;;;;;2.00;0.80;;;9.70;99.90;;;;;;4925282;29;20251;-60
2023/04/02 09:09:41;;;;;;;1.93;0.70;;;9.90;99.90;;;;;;4925201;29;20225;-60
2023/04/02 09:12:18;;;;;;;2.07;0.70;;;9.90;99.90;;;;;;4925378;29;20234;-61
2023/04/02 09:14:58;;;;;;;3.97;0.83;;;10.10;99.90;;;;;;4927255;29;20221;-61
2023/04/02 09:17:27;;;;;;;3.27;0.70;;;10.10;99.90;;;;;;4937955;29;20232;-59
2023/04/02 09:20:17;;;;;;;2.37;0.93;;;9.90;99.90;;;;;;4935783;29;20233;-61
2023/04/02 09:22:47;;;;;;;2.40;0.80;;;9.90;99.90;;;;;;4922430;29;20780;-61
2023/04/02 09:25:20;;;;;;;3.53;0.90;;;10.10;99.90;;;;;;4931361;29;20235;-60
2023/04/02 09:27:50;;;;;;;3.30;0.80;;;9.90;99.90;;;;;;4938934;29;20243;-60
2023/04/02 09:30:30;;;;;;;1.87;0.77;;;9.00;99.90;;;;;;4935862;29;20698;-59
2023/04/02 09:33:01;;;;;;;1.77;0.60;;;8.60;99.90;;;;;;4928273;29;20220;-60
2023/04/02 09:35:53;;;;;;;2.63;0.80;;;8.20;99.90;;;;;;4920019;29;20248;-60
2023/04/02 09:38:23;;;;;;;1.93;0.60;;;8.40;99.90;;;;;;4933078;29;20232;-59
2023/04/02 09:40:58;;;;;;;1.50;0.80;;;8.10;99.90;;;;;;4928104;29;20224;-60
2023/04/02 09:43:28;;;;;;;3.47;1.13;;;8.20;99.90;;;;;;4930267;29;20221;-59
2023/04/02 09:45:59;;;;;;;1.20;0.50;;;8.60;99.90;;;;;;4926871;29;20224;-60
2023/04/02 09:48:30;;;;;;;4.00;0.87;;;9.30;99.90;;;;;;4927569;29;20255;-59
2023/04/02 09:51:13;;;;;;;2.43;0.73;;;9.70;99.90;;;;;;4918980;29;20240;-59
2023/04/02 09:53:43;;;;;;;2.00;0.80;;;9.70;99.90;;;;;;4918054;29;20247;-60
2023/04/02 09:56:17;;;;;;;2.53;0.77;;;9.70;99.90;;;;;;4917578;29;20255;-60
2023/04/02 09:59:01;;;;;;;3.87;0.63;;;9.80;99.90;;;;;;4916882;29;20246;-60
2023/04/02 10:01:30;;;;;;;5.63;1.27;;;10.10;99.90;;;;;;4915783;29;20236;-60
2023/04/02 10:03:59;;;;;;;1.90;0.60;;;10.20;99.90;;;;;;4928100;29;20347;-60
2023/04/02 10:06:30;;;;;;;2.73;0.90;;;10.10;99.90;;;;;;4916114;29;20329;-59
2023/04/02 10:09:18;;;;;;;1.90;0.87;;;10.20;99.90;;;;;;4916001;29;20258;-59
2023/04/02 10:11:47;;;;;;;1.60;0.70;;;9.90;99.90;;;;;;4915273;29;20235;-58
2023/04/02 10:14:20;;;;;;;1.63;0.60;;;10.00;99.90;;;;;;4918045;29;20261;-61
2023/04/02 10:16:51;;;;;;;1.57;0.70;;;9.90;99.90;;;;;;4913930;29;20270;-59
2023/04/02 10:19:26;;;;;;;2.60;0.70;;;10.10;99.90;;;;;;4912471;29;20239;-59
2023/04/02 10:21:57;;;;;;;2.00;0.60;;;10.20;99.90;;;;;;4916980;29;20245;-59
2023/04/02 10:24:27;;;;;;;0.80;0.60;;;10.50;99.90;;;;;;4918884;29;20246;-59
2023/04/02 10:27:08;;;;;;;1.40;0.60;;;10.70;99.90;;;;;;4921256;29;20328;-60
2023/04/02 10:29:50;;;;;;;1.57;0.50;;;10.70;99.90;;;;;;4915593;29;20701;-59
2023/04/02 10:32:21;;;;;;;1.47;0.40;;;10.90;99.90;;;;;;4917109;29;20245;-60
2023/04/02 10:34:56;;;;;;;2.70;0.70;;;10.80;99.90;;;;;;4918698;29;21165;-59
2023/04/02 10:37:49;;;;;;;1.20;0.50;;;11.00;99.90;;;;;;4918340;29;20771;-58
2023/04/02 10:40:25;;;;;;;2.57;0.90;;;11.00;99.90;;;;;;4913748;29;20236;-60
2023/04/02 10:43:21;;;;;;;2.67;0.67;;;10.90;99.90;;;;;;4917029;29;20249;-59
2023/04/02 10:45:55;;;;;;;1.77;0.70;;;11.20;99.90;;;;;;4915732;29;20238;-61
2023/04/02 10:48:30;;;;;;;2.27;0.80;;;11.10;99.90;;;;;;4914740;29;20252;-60
2023/04/02 10:51:04;;;;;;;1.67;0.73;;;11.00;99.90;;;;;;4918099;29;20703;-59
2023/04/02 10:53:39;;;;;;;1.10;0.60;;;11.10;99.90;;;;;;4918406;29;20243;-58
2023/04/02 10:56:11;;;;;;;0.90;0.60;;;11.00;99.90;;;;;;4913860;29;20703;-60
2023/04/02 10:58:49;;;;;;;0.83;0.50;;;10.90;99.90;;;;;;4913503;29;20703;-60
2023/04/02 11:01:23;;;;;;;1.10;0.50;;;11.00;99.90;;;;;;4916026;29;20334;-59
2023/04/02 11:03:54;;;;;;;1.63;0.60;;;11.10;99.90;;;;;;4917674;29;20725;-60
2023/04/02 11:06:30;;;;;;;2.50;0.90;;;11.20;99.90;;;;;;4917254;29;20786;-60
2023/04/02 11:09:03;;;;;;;1.43;0.60;;;10.90;99.90;;;;;;4913401;29;20244;-60
2023/04/02 11:11:38;;;;;;;1.70;0.60;;;10.70;99.90;;;;;;4918691;29;20320;-59
2023/04/02 11:14:13;;;;;;;1.53;0.50;;;10.90;99.90;;;;;;4915310;29;20238;-60
2023/04/02 11:16:42;;;;;;;1.60;0.70;;;11.20;99.90;;;;;;4916899;29;20237;-59
2023/04/02 11:19:24;;;;;;;4.17;0.83;;;11.50;99.90;;;;;;4914699;29;20976;-58
2023/04/02 11:21:54;;;;;;;1.20;0.73;;;11.30;99.90;;;;;;4915163;29;20233;-59
2023/04/02 11:24:37;;;;;;;3.13;0.73;;;11.80;99.90;;;;;;4916556;29;20242;-59
2023/04/02 11:27:17;;;;;;;1.90;0.73;;;11.30;99.90;;;;;;4914866;29;20246;-59
2023/04/02 11:29:47;;;;;;;1.73;0.80;;;11.40;99.90;;;;;;4913718;29;20238;-59
2023/04/02 11:32:27;;;;;;;1.87;0.80;;;11.20;99.90;;;;;;4915877;29;20887;-59
2023/04/02 11:35:24;;;;;;;2.67;0.70;;;11.20;99.90;;;;;;4917590;29;20597;-59
2023/04/02 11:37:54;;;;;;;2.03;0.80;;;11.40;99.90;;;;;;4914342;29;20238;-60
2023/04/02 11:40:43;;;;;;;2.63;0.90;;;11.10;99.90;;;;;;4914504;29;20231;-60
2023/04/02 11:44:00;;;;;;;2.40;0.90;;;11.10;99.90;;;;;;4916806;29;20669;-60
2023/04/02 11:46:47;;;;;;;0.77;0.60;;;11.30;99.90;;;;;;4877568;29;20791;-60
2023/04/02 11:49:53;;;;;;;1.63;0.60;;;11.20;99.90;;;;;;4909995;29;20308;-60
2023/04/02 11:52:24;;;;;;;1.93;0.53;;;11.10;99.90;;;;;;4916522;29;20242;-58
2023/04/02 11:55:01;;;;;;;1.23;0.60;;;10.80;99.90;;;;;;4916371;29;20225;-59
2023/04/02 11:57:55;;;;;;;2.50;0.90;;;10.80;99.90;;;;;;4917000;29;20243;-60
2023/04/02 12:00:49;;;;;;;1.60;0.80;;;10.70;99.90;;;;;;4911953;29;20249;-60
2023/04/02 12:03:38;;;;;;;2.00;0.70;;;10.40;99.90;;;;;;4914694;29;20250;-60
2023/04/02 12:06:12;;;;;;;1.43;0.70;;;10.10;99.90;;;;;;4915705;29;20717;-60
2023/04/02 12:08:53;;;;;;;3.43;0.77;;;10.10;99.90;;;;;;4913047;29;20243;-58
2023/04/02 12:11:33;;;;;;;3.13;0.80;;;10.00;99.90;;;;;;4916183;29;20720;-58
2023/04/02 12:14:07;;;;;;;1.30;0.63;;;10.10;99.90;;;;;;4915072;29;20562;-61
2023/04/02 12:16:35;;;;;;;3.23;0.70;;;10.20;99.90;;;;;;4915335;29;20233;-58
2023/04/02 12:19:08;;;;;;;1.47;0.80;;;10.00;99.90;;;;;;4913142;29;20899;-60
2023/04/02 12:21:38;;;;;;;1.13;0.77;;;9.90;99.90;;;;;;4914250;29;20262;-58
2023/04/02 12:24:17;;;;;;;1.97;0.60;;;9.80;99.90;;;;;;4915842;29;20233;-60
2023/04/02 12:26:46;;;;;;;1.57;0.80;;;9.50;99.90;;;;;;4915596;29;20242;-59
2023/04/02 12:29:22;;;;;;;1.67;0.60;;;9.70;99.90;;;;;;4910598;29;20825;-57
2023/04/02 12:31:51;;;;;;;1.30;0.73;;;9.60;99.90;;;;;;4914499;29;20257;-60
2023/04/02 12:34:22;;;;;;;0.83;0.50;;;9.50;99.90;;;;;;4917117;29;20220;-60
2023/04/02 12:36:56;;;;;;;1.53;0.97;;;9.60;99.90;;;;;;4916647;29;20632;-59
2023/04/02 12:39:24;;;;;;;2.23;1.00;;;9.40;99.90;;;;;;4915102;29;20588;-59
2023/04/02 12:41:56;;;;;;;1.00;0.60;;;9.20;99.90;;;;;;4919476;29;20602;-60
2023/04/02 12:44:27;;;;;;;1.13;0.60;;;9.30;99.90;;;;;;4928997;29;20242;-60
2023/04/02 12:46:56;;;;;;;2.43;0.60;;;9.30;99.90;;;;;;4934204;29;20704;-60
2023/04/02 12:49:37;;;;;;;1.97;0.70;;;9.40;99.90;;;;;;4935760;29;20232;-58
2023/04/02 12:52:08;;;;;;;1.90;0.90;;;9.50;99.90;;;;;;4931357;29;20427;-59
2023/04/02 12:54:45;;;;;;;2.70;0.67;;;9.50;99.90;;;;;;4931998;29;20233;-60
2023/04/02 12:57:38;;;;;;;1.47;0.70;;;9.60;99.90;;;;;;4936210;29;20696;-60
2023/04/02 13:00:36;;;;;;;1.67;0.70;;;9.40;99.90;;;;;;4928619;29;20245;-60
2023/04/02 13:03:17;;;;;;;1.50;0.70;;;9.20;99.90;;;;;;4927522;29;20248;-60
2023/04/02 13:05:50;;;;;;;1.50;0.63;;;8.80;99.90;;;;;;4935528;29;20244;-59
2023/04/02 13:08:20;;;;;;;1.73;0.90;;;8.60;99.90;;;;;;4916663;29;20232;-60
2023/04/02 13:10:53;;;;;;;1.57;0.57;;;8.80;99.90;;;;;;4916205;29;20233;-59
2023/04/02 13:13:27;;;;;;;0.90;0.50;;;9.00;99.90;;;;;;4916552;29;20228;-60
2023/04/02 13:16:22;;;;;;;1.60;0.60;;;9.30;99.90;;;;;;4916395;29;20238;-60
2023/04/02 13:18:50;;;;;;;2.57;0.70;;;9.20;99.90;;;;;;4916220;29;20229;-60
2023/04/02 13:21:26;;;;;;;1.00;0.60;;;9.10;99.90;;;;;;4921151;29;20239;-60
2023/04/02 13:23:55;;;;;;;1.53;0.70;;;9.20;99.90;;;;;;4921627;29;20284;-61
2023/04/02 13:26:26;;;;;;;0.73;0.43;;;9.10;99.90;;;;;;4934815;29;20229;-60
2023/04/02 13:28:59;;;;;;;0.90;0.40;;;9.20;99.90;;;;;;4932628;29;20745;-60
2023/04/02 13:31:29;;;;;;;0.80;0.43;;;9.30;99.90;;;;;;4923204;29;20237;-60
2023/04/02 13:33:58;;;;;;;0.67;0.40;;;9.10;99.90;;;;;;4934772;29;20288;-59
2023/04/02 13:36:28;;;;;;;1.87;0.50;;;9.00;99.90;;;;;;4935348;29;20230;-59